Time;durP1;ratioP1;P1;durP2;ratioP2;P2;SDS_P1;SDS_P2;PMS_P1;PMS_P2;Temp;Humidity;BMP_temperature;BMP_pressure;BME280_temperature;BME280_humidity;BME280_pressure;Samples;Min_cycle;Max_cycle;Signal;HPM_P1;HPM_P2
2022/06/14 00:01:08;;;;;;;15.13;3.33;;;12.80;99.90;;;;;;4823257;29;20153;-58
2022/06/14 00:03:42;;;;;;;10.48;3.72;;;12.90;99.90;;;;;;4822649;29;20054;-58
2022/06/14 00:06:11;;;;;;;8.83;3.00;;;12.80;99.90;;;;;;4806870;29;20058;-59
2022/06/14 00:08:38;;;;;;;11.18;2.88;;;12.90;99.90;;;;;;4823349;29;20065;-58
2022/06/14 00:11:10;;;;;;;13.25;3.22;;;12.80;99.90;;;;;;4823074;29;20050;-58
2022/06/14 00:13:36;;;;;;;10.93;3.22;;;13.00;99.90;;;;;;4823286;29;20185;-58
2022/06/14 00:16:02;;;;;;;13.77;3.70;;;13.00;99.90;;;;;;4822430;29;20063;-58
2022/06/14 00:18:28;;;;;;;9.73;2.97;;;13.10;99.90;;;;;;4823325;29;20621;-58
2022/06/14 00:20:54;;;;;;;10.02;3.35;;;13.10;99.90;;;;;;4822655;29;20145;-58
2022/06/14 00:23:22;;;;;;;10.93;3.30;;;13.10;99.90;;;;;;4822819;29;20042;-58
2022/06/14 00:25:53;;;;;;;10.50;3.15;;;13.20;99.90;;;;;;4806561;29;20064;-60
2022/06/14 00:28:20;;;;;;;13.38;3.20;;;13.20;99.90;;;;;;4823150;29;20058;-58
2022/06/14 00:30:50;;;;;;;11.63;3.20;;;13.20;99.90;;;;;;4823132;29;20054;-58
2022/06/14 00:33:16;;;;;;;13.70;2.88;;;13.10;99.90;;;;;;4822984;29;20053;-56
2022/06/14 00:35:42;;;;;;;13.82;3.30;;;13.10;99.90;;;;;;4822751;29;20053;-58
2022/06/14 00:38:10;;;;;;;12.60;3.40;;;13.10;99.90;;;;;;4806237;29;20102;-58
2022/06/14 00:40:37;;;;;;;11.93;3.28;;;13.10;99.90;;;;;;4806594;29;20042;-58
2022/06/14 00:43:12;;;;;;;11.30;3.05;;;13.10;99.90;;;;;;4822524;29;20043;-58
2022/06/14 00:45:37;;;;;;;11.57;3.15;;;13.10;99.90;;;;;;4823047;29;20066;-58
2022/06/14 00:48:18;;;;;;;14.35;3.53;;;13.10;99.90;;;;;;4822573;29;20050;-58
2022/06/14 00:51:03;;;;;;;9.70;3.55;;;13.10;99.90;;;;;;4806110;29;20058;-58
2022/06/14 00:53:47;;;;;;;;;;;13.10;99.90;;;;;;4823302;29;20106;-59
2022/06/14 00:56:23;;;;;;;8.93;3.10;;;13.10;99.90;;;;;;4822369;29;19925;-59
2022/06/14 00:59:07;;;;;;;9.65;3.20;;;13.10;99.90;;;;;;4822707;29;20103;-59
2022/06/14 01:01:36;;;;;;;9.57;3.17;;;13.10;99.90;;;;;;4822786;29;20054;-59
2022/06/14 01:04:23;;;;;;;14.02;3.60;;;13.00;99.90;;;;;;4822362;29;20367;-59
2022/06/14 01:06:58;;;;;;;10.52;3.03;;;13.00;99.90;;;;;;4822382;29;20050;-60
2022/06/14 01:10:16;;;;;;;10.45;3.78;;;13.00;99.90;;;;;;4822703;29;20429;-60
2022/06/14 01:12:46;;;;;;;13.18;3.30;;;12.90;99.90;;;;;;4792258;29;20066;-59
2022/06/14 01:15:22;;;;;;;10.32;3.38;;;12.80;99.90;;;;;;4822113;29;20133;-58
2022/06/14 01:17:58;;;;;;;10.80;3.58;;;12.80;99.90;;;;;;4806304;29;20058;-60
2022/06/14 01:20:24;;;;;;;7.65;3.53;;;12.70;99.90;;;;;;4822357;29;20046;-60
2022/06/14 01:22:51;;;;;;;12.82;3.53;;;12.70;99.90;;;;;;4822413;29;20414;-59
2022/06/14 01:25:18;;;;;;;13.02;3.47;;;12.70;99.90;;;;;;4822033;29;20088;-57
2022/06/14 01:27:44;;;;;;;9.68;3.63;;;12.70;99.90;;;;;;4822444;29;20050;-59
2022/06/14 01:30:13;;;;;;;13.35;3.95;;;12.60;99.90;;;;;;4821995;29;20457;-57
2022/06/14 01:33:03;;;;;;;17.45;4.18;;;12.50;99.90;;;;;;4822592;29;20440;-59
2022/06/14 01:35:34;;;;;;;10.63;3.30;;;12.50;99.90;;;;;;4822274;29;20428;-59
2022/06/14 01:38:06;;;;;;;15.32;3.90;;;12.40;99.90;;;;;;4822043;29;20438;-59
2022/06/14 01:40:50;;;;;;;11.93;3.58;;;12.40;99.90;;;;;;4822299;29;20062;-59
2022/06/14 01:43:47;;;;;;;14.10;4.30;;;12.40;99.90;;;;;;4805310;29;20629;-59
2022/06/14 01:46:25;;;;;;;7.70;3.15;;;12.40;99.90;;;;;;4790763;29;20070;-59
2022/06/14 01:52:31;;;;;;;13.40;4.10;;;12.40;99.90;;;;;;4821903;29;20450;-59
2022/06/14 01:55:13;;;;;;;14.00;3.55;;;12.30;99.90;;;;;;4822054;29;20050;-60
2022/06/14 01:57:59;;;;;;;10.90;3.55;;;12.30;99.90;;;;;;4822132;29;20058;-59
2022/06/14 02:00:34;;;;;;;9.80;3.33;;;12.30;99.90;;;;;;4805771;29;20162;-59
2022/06/14 02:06:15;;;;;;;10.00;3.42;;;12.20;99.90;;;;;;4824823;29;20054;-59
2022/06/14 02:08:55;;;;;;;8.23;3.25;;;12.20;99.90;;;;;;4808727;29;20532;-58
2022/06/14 02:11:33;;;;;;;13.40;3.25;;;12.20;99.90;;;;;;4808781;29;20129;-57
2022/06/14 02:14:11;;;;;;;13.30;3.83;;;12.20;99.90;;;;;;4825283;29;20062;-57
2022/06/14 02:16:43;;;;;;;12.70;3.45;;;12.20;99.90;;;;;;4808999;29;20050;-59
2022/06/14 02:19:41;;;;;;;13.10;3.35;;;12.10;99.90;;;;;;4824853;29;20054;-59
2022/06/14 02:22:14;;;;;;;12.10;3.22;;;12.10;99.90;;;;;;4798640;29;20066;-57
2022/06/14 02:24:48;;;;;;;11.65;3.47;;;12.10;99.90;;;;;;4808829;29;20069;-57
2022/06/14 02:27:20;;;;;;;;;;;12.10;99.90;;;;;;4809009;29;20058;-57
2022/06/14 02:30:04;;;;;;;12.40;3.40;;;12.10;99.90;;;;;;4824972;29;19988;-60
2022/06/14 02:32:45;;;;;;;14.18;3.63;;;12.10;99.90;;;;;;4808872;29;20121;-58
2022/06/14 02:35:18;;;;;;;8.90;3.17;;;12.10;99.90;;;;;;4824467;29;20374;-59
2022/06/14 02:37:59;;;;;;;11.40;3.63;;;12.00;99.90;;;;;;4824916;29;20382;-61
2022/06/14 02:40:47;;;;;;;15.32;4.28;;;12.00;99.90;;;;;;4824587;29;20618;-58
2022/06/14 02:43:32;;;;;;;14.98;3.25;;;12.00;99.90;;;;;;4808224;29;20054;-58
2022/06/14 02:46:04;;;;;;;16.52;4.28;;;12.00;99.90;;;;;;4808595;29;20058;-59
2022/06/14 02:48:39;;;;;;;10.43;3.13;;;12.00;99.90;;;;;;4807947;29;20062;-57
2022/06/14 02:51:40;;;;;;;9.80;3.03;;;12.00;99.90;;;;;;4808436;29;20058;-61
2022/06/14 02:54:11;;;;;;;12.27;2.80;;;12.00;99.90;;;;;;4824507;29;20061;-61
2022/06/14 02:56:40;;;;;;;11.13;3.20;;;12.00;99.90;;;;;;4824392;29;20083;-57
2022/06/14 02:59:13;;;;;;;13.32;3.95;;;12.30;99.90;;;;;;4824349;29;20141;-58
2022/06/14 03:01:51;;;;;;;13.38;3.25;;;12.00;99.90;;;;;;4824265;29;20070;-56
2022/06/14 03:04:23;;;;;;;9.85;3.33;;;12.00;99.90;;;;;;4823809;29;20141;-57
2022/06/14 03:07:10;;;;;;;11.90;3.78;;;12.10;99.90;;;;;;4823836;29;20054;-57
2022/06/14 03:09:38;;;;;;;10.02;3.15;;;12.00;99.90;;;;;;4823705;29;20497;-55
2022/06/14 03:12:28;;;;;;;11.95;3.22;;;12.10;99.90;;;;;;4806962;29;20046;-58
2022/06/14 03:15:05;;;;;;;11.82;3.30;;;12.00;99.90;;;;;;4823289;29;20500;-58
2022/06/14 03:18:02;;;;;;;11.38;3.47;;;12.00;99.90;;;;;;4823745;29;20121;-58
2022/06/14 03:20:48;;;;;;;11.55;3.53;;;12.00;99.90;;;;;;4823537;29;20054;-58
2022/06/14 03:23:33;;;;;;;8.75;3.22;;;12.00;99.90;;;;;;4794025;29;20061;-58
2022/06/14 03:26:18;;;;;;;9.18;3.20;;;12.00;99.90;;;;;;4807921;29;20055;-58
2022/06/14 03:28:53;;;;;;;8.93;3.65;;;11.90;99.90;;;;;;4823999;29;20111;-58
2022/06/14 03:32:00;;;;;;;9.70;3.42;;;12.00;99.90;;;;;;4807505;29;20061;-56
2022/06/14 03:34:35;;;;;;;9.60;3.05;;;12.00;99.90;;;;;;4782909;29;20122;-58
2022/06/14 03:37:02;;;;;;;11.85;3.60;;;12.00;99.90;;;;;;4823805;29;20050;-58
2022/06/14 03:39:38;;;;;;;12.82;4.32;;;12.00;99.90;;;;;;4807145;29;20123;-57
2022/06/14 03:42:07;;;;;;;8.45;2.97;;;12.00;99.90;;;;;;4823846;29;20089;-56
2022/06/14 03:44:33;;;;;;;11.30;3.42;;;12.00;99.90;;;;;;4823299;29;20046;-58
2022/06/14 03:47:25;;;;;;;11.77;4.03;;;12.00;99.90;;;;;;4823636;29;20137;-58
2022/06/14 03:49:57;;;;;;;11.27;3.80;;;12.00;99.90;;;;;;4823608;29;20046;-58
2022/06/14 03:53:03;;;;;;;11.18;3.15;;;12.10;99.90;;;;;;4823276;29;20149;-58
2022/06/14 03:55:44;;;;;;;9.98;3.60;;;12.10;99.90;;;;;;4807067;29;20058;-58
2022/06/14 03:58:09;;;;;;;10.52;3.22;;;12.10;99.90;;;;;;4807036;29;20129;-58
2022/06/14 04:00:56;;;;;;;14.25;3.58;;;12.10;99.90;;;;;;4823049;29;20587;-57
2022/06/14 04:04:06;;;;;;;7.82;2.85;;;12.10;99.90;;;;;;4822938;29;20101;-58
2022/06/14 04:06:48;;;;;;;9.95;3.25;;;12.20;99.90;;;;;;4765079;29;20066;-58
2022/06/14 04:09:14;;;;;;;14.60;4.32;;;12.20;99.90;;;;;;4807149;29;20058;-58
2022/06/14 04:11:45;;;;;;;14.02;3.58;;;12.20;99.90;;;;;;4823031;29;20130;-58
2022/06/14 04:14:49;;;;;;;10.15;3.30;;;12.30;99.90;;;;;;4806805;29;20471;-58
2022/06/14 04:17:37;;;;;;;10.60;3.50;;;12.30;99.90;;;;;;4823045;29;20068;-58
2022/06/14 04:20:09;;;;;;;13.27;3.83;;;12.30;99.90;;;;;;4806901;29;20163;-61
2022/06/14 04:22:53;;;;;;;11.48;3.40;;;12.30;99.90;;;;;;4790797;29;20436;-57
2022/06/14 04:25:54;;;;;;;9.05;3.25;;;12.40;99.90;;;;;;4805689;29;20137;-60
2022/06/14 04:28:37;;;;;;;9.20;2.85;;;12.40;99.90;;;;;;4809501;29;20145;-60
2022/06/14 04:31:17;;;;;;;10.30;3.53;;;12.50;99.90;;;;;;4823009;29;20054;-58
2022/06/14 04:33:50;;;;;;;8.98;3.63;;;12.50;99.90;;;;;;4822446;29;20493;-56
2022/06/14 04:36:21;;;;;;;9.35;3.50;;;12.70;99.90;;;;;;4822815;29;20054;-58
2022/06/14 04:38:53;;;;;;;9.25;3.15;;;12.80;99.90;;;;;;4822876;29;20058;-58
2022/06/14 04:41:30;;;;;;;11.13;3.05;;;12.80;99.90;;;;;;4823026;29;20054;-58
2022/06/14 04:44:11;;;;;;;11.35;3.33;;;13.00;99.90;;;;;;4807255;29;20070;-56
2022/06/14 04:46:43;;;;;;;9.68;3.28;;;13.10;99.90;;;;;;4822400;29;20138;-58
2022/06/14 04:49:24;;;;;;;11.10;2.80;;;13.30;99.90;;;;;;4806522;29;20058;-58
2022/06/14 04:51:54;;;;;;;10.13;3.30;;;13.40;99.90;;;;;;4822964;29;20057;-59
2022/06/14 04:54:27;;;;;;;10.10;3.15;;;13.80;99.90;;;;;;4806916;29;20445;-59
2022/06/14 04:57:04;;;;;;;6.10;2.53;;;14.30;99.90;;;;;;4822928;29;20061;-59
2022/06/14 04:59:35;;;;;;;8.20;3.17;;;14.70;99.90;;;;;;4822420;29;20054;-59
2022/06/14 05:02:09;;;;;;;8.45;2.70;;;15.00;99.90;;;;;;4822602;29;20046;-59
2022/06/14 05:04:41;;;;;;;9.93;2.92;;;15.20;99.90;;;;;;4822440;29;20136;-59
2022/06/14 05:07:20;;;;;;;10.38;3.20;;;15.50;99.90;;;;;;4822363;29;20054;-59
2022/06/14 05:09:53;;;;;;;12.50;3.20;;;15.70;99.90;;;;;;4822388;29;20118;-59
2022/06/14 05:12:32;;;;;;;10.45;3.15;;;15.80;99.90;;;;;;4822635;29;20092;-59
2022/06/14 05:15:12;;;;;;;10.77;3.30;;;15.80;99.90;;;;;;4822661;29;20116;-59
2022/06/14 05:17:50;;;;;;;8.55;2.97;;;15.80;99.90;;;;;;4822511;29;20146;-59
2022/06/14 05:20:37;;;;;;;9.32;3.75;;;15.90;99.90;;;;;;4822543;29;20057;-59
2022/06/14 05:23:15;;;;;;;9.02;3.30;;;15.90;99.90;;;;;;4822323;29;20438;-60
2022/06/14 05:26:04;;;;;;;10.23;3.05;;;16.00;99.90;;;;;;4805782;29;20057;-59
2022/06/14 05:28:45;;;;;;;8.68;3.35;;;16.10;99.90;;;;;;4821782;29;20112;-60
2022/06/14 05:31:29;;;;;;;7.43;3.05;;;16.20;99.90;;;;;;4822369;29;20050;-59
2022/06/14 05:34:43;;;;;;;9.30;2.90;;;16.20;99.90;;;;;;4822366;29;20080;-59
2022/06/14 05:37:26;;;;;;;7.78;2.72;;;16.30;99.90;;;;;;4817382;29;20550;-59
2022/06/14 05:40:11;;;;;;;8.10;2.65;;;16.40;99.90;;;;;;4825526;29;20079;-58
2022/06/14 05:42:44;;;;;;;7.40;2.92;;;16.50;99.90;;;;;;4825542;29;20050;-59
2022/06/14 05:45:12;;;;;;;6.70;2.38;;;16.60;99.90;;;;;;4825571;29;20125;-61
2022/06/14 05:47:53;;;;;;;8.77;3.05;;;16.60;99.90;;;;;;4825251;29;20054;-59
2022/06/14 05:50:30;;;;;;;6.30;2.70;;;16.60;99.90;;;;;;4809196;29;20054;-58
2022/06/14 05:53:12;;;;;;;7.47;2.78;;;16.70;99.90;;;;;;4825389;29;20050;-59
2022/06/14 05:55:41;;;;;;;9.02;2.78;;;16.80;99.90;;;;;;4825031;29;20408;-57
2022/06/14 05:58:25;;;;;;;13.50;2.92;;;16.80;99.90;;;;;;4809405;29;20569;-60
2022/06/14 06:01:05;;;;;;;7.10;2.53;;;16.90;99.90;;;;;;4825314;29;20042;-60
2022/06/14 06:03:44;;;;;;;7.65;2.50;;;16.90;99.90;;;;;;4825442;29;20086;-62
2022/06/14 06:06:12;;;;;;;7.65;2.47;;;16.70;99.90;;;;;;4825427;29;20141;-58
2022/06/14 06:08:46;;;;;;;7.18;2.88;;;16.80;99.90;;;;;;4824965;29;20137;-59
2022/06/14 06:11:23;;;;;;;8.98;3.05;;;16.90;99.90;;;;;;4825203;29;20054;-59
2022/06/14 06:13:54;;;;;;;8.27;2.72;;;17.20;99.90;;;;;;4808862;29;20062;-59
2022/06/14 06:16:43;;;;;;;8.15;2.47;;;17.60;99.90;;;;;;4825193;29;20066;-59
2022/06/14 06:19:18;;;;;;;7.80;2.35;;;18.50;99.90;;;;;;4825327;29;20138;-59
2022/06/14 06:22:02;;;;;;;8.38;2.45;;;19.50;99.90;;;;;;4824562;29;20066;-59
2022/06/14 06:24:37;;;;;;;6.70;2.38;;;20.50;99.90;;;;;;4809050;29;20171;-59
2022/06/14 06:27:08;;;;;;;10.48;2.53;;;21.10;99.00;;;;;;4825128;29;20103;-59
2022/06/14 06:29:52;;;;;;;7.53;2.40;;;21.60;99.20;;;;;;4808666;29;20100;-61
2022/06/14 06:32:19;;;;;;;7.55;2.53;;;21.90;97.90;;;;;;4824832;29;20077;-60
2022/06/14 06:34:47;;;;;;;6.60;2.55;;;22.30;97.20;;;;;;4824988;29;20055;-61
2022/06/14 06:37:43;;;;;;;6.53;2.33;;;22.70;96.90;;;;;;4824874;29;20054;-60
2022/06/14 06:40:22;;;;;;;6.93;2.50;;;23.10;96.00;;;;;;4824957;29;20437;-58
2022/06/14 06:43:10;;;;;;;7.65;2.15;;;23.50;95.30;;;;;;4808038;29;20042;-59
2022/06/14 06:45:43;;;;;;;6.30;2.05;;;24.00;94.70;;;;;;4824582;29;20119;-61
2022/06/14 06:48:30;;;;;;;6.30;2.13;;;24.50;94.70;;;;;;4807299;29;20062;-58
2022/06/14 06:51:01;;;;;;;7.00;1.92;;;24.90;93.60;;;;;;4808287;29;20300;-59
2022/06/14 06:53:40;;;;;;;6.13;2.38;;;25.20;92.50;;;;;;4824712;29;20054;-58
2022/06/14 06:56:21;;;;;;;7.72;2.08;;;25.40;92.50;;;;;;4807957;29;20094;-57
2022/06/14 06:58:57;;;;;;;5.80;2.13;;;25.50;92.00;;;;;;4808029;29;20060;-59
2022/06/14 07:01:37;;;;;;;5.93;2.10;;;25.70;91.40;;;;;;4824682;29;20058;-59
2022/06/14 07:04:02;;;;;;;6.13;1.90;;;26.10;91.00;;;;;;4824091;29;20050;-58
2022/06/14 07:06:44;;;;;;;7.00;1.98;;;25.80;90.60;;;;;;4824546;29;20130;-61
2022/06/14 07:09:18;;;;;;;6.03;1.98;;;26.20;90.20;;;;;;4824529;29;20054;-59
2022/06/14 07:11:59;;;;;;;5.75;2.13;;;26.60;90.60;;;;;;4824192;29;20054;-60
2022/06/14 07:14:37;;;;;;;5.40;2.00;;;26.90;89.20;;;;;;4808265;29;20114;-63
2022/06/14 07:17:17;;;;;;;7.55;2.30;;;26.90;88.80;;;;;;4823646;29;20145;-60
2022/06/14 07:20:11;;;;;;;4.93;1.80;;;27.30;88.50;;;;;;4824320;29;20153;-63
2022/06/14 07:22:50;;;;;;;6.30;2.30;;;27.60;87.00;;;;;;4802545;29;20080;-59
2022/06/14 07:25:24;;;;;;;7.38;1.83;;;27.50;85.70;;;;;;4806097;29;20051;-59
2022/06/14 07:28:16;;;;;;;6.47;2.17;;;27.40;84.70;;;;;;4805749;29;20469;-59
2022/06/14 07:30:49;;;;;;;6.47;1.88;;;27.60;85.00;;;;;;4806084;29;20054;-58
2022/06/14 07:33:17;;;;;;;5.82;1.80;;;27.30;82.60;;;;;;4806067;29;20054;-59
2022/06/14 07:35:49;;;;;;;3.75;1.60;;;27.40;82.50;;;;;;4805703;29;20059;-61
2022/06/14 07:38:20;;;;;;;5.18;1.70;;;27.40;82.80;;;;;;4804844;29;20046;-59
2022/06/14 07:41:10;;;;;;;5.57;2.25;;;27.40;84.10;;;;;;4805656;29;20111;-62
2022/06/14 07:43:58;;;;;;;4.20;1.80;;;27.30;82.60;;;;;;4805923;29;20050;-59
2022/06/14 07:46:39;;;;;;;4.20;1.80;;;27.20;81.70;;;;;;4805718;29;20050;-58
2022/06/14 07:49:13;;;;;;;6.32;1.92;;;27.50;81.60;;;;;;4804600;29;20362;-60
2022/06/14 07:51:47;;;;;;;5.68;2.20;;;27.50;82.20;;;;;;4805997;29;20058;-59
2022/06/14 07:54:22;;;;;;;6.25;1.90;;;27.20;81.80;;;;;;4806110;29;20050;-60
2022/06/14 07:57:01;;;;;;;5.85;1.92;;;27.60;82.00;;;;;;4804475;29;20425;-62
2022/06/14 07:59:51;;;;;;;9.35;2.20;;;28.00;81.40;;;;;;4805576;29;20241;-59
2022/06/14 08:02:32;;;;;;;7.45;1.95;;;28.30;80.70;;;;;;4801728;29;20157;-59
2022/06/14 08:05:16;;;;;;;4.78;1.92;;;28.40;80.00;;;;;;4805124;29;20055;-59
2022/06/14 08:07:45;;;;;;;6.55;1.85;;;28.20;79.00;;;;;;4805519;29;20081;-59
2022/06/14 08:10:20;;;;;;;5.40;1.83;;;27.30;79.10;;;;;;4804056;29;20119;-59
2022/06/14 08:12:52;;;;;;;4.50;1.40;;;26.70;79.90;;;;;;4805217;29;20588;-59
2022/06/14 08:15:29;;;;;;;3.83;1.60;;;27.00;79.70;;;;;;4805317;29;20145;-59
2022/06/14 08:18:03;;;;;;;3.83;1.65;;;27.90;79.90;;;;;;4804967;29;20096;-60
2022/06/14 08:21:02;;;;;;;4.88;1.63;;;28.00;78.30;;;;;;4805456;29;20054;-59
2022/06/14 08:23:41;;;;;;;5.47;1.85;;;28.50;77.80;;;;;;4805681;29;20096;-59
2022/06/14 08:26:18;;;;;;;2.85;1.27;;;29.00;76.30;;;;;;4804110;29;20508;-59
2022/06/14 08:28:53;;;;;;;3.50;1.40;;;28.90;76.30;;;;;;4789156;29;20055;-59
2022/06/14 08:31:26;;;;;;;3.25;1.55;;;28.00;76.60;;;;;;4804180;29;20055;-60
2022/06/14 08:34:16;;;;;;;4.63;1.63;;;27.00;77.70;;;;;;4803786;29;20077;-63
2022/06/14 08:37:03;;;;;;;4.72;1.60;;;26.40;78.70;;;;;;4803957;29;20060;-58
2022/06/14 08:39:37;;;;;;;3.75;1.60;;;26.80;78.60;;;;;;4804014;29;20057;-58
2022/06/14 08:42:19;;;;;;;3.95;1.60;;;27.20;77.30;;;;;;4804866;29;20065;-58
2022/06/14 08:44:59;;;;;;;5.30;1.67;;;26.90;77.70;;;;;;4804961;29;20061;-58
2022/06/14 08:47:46;;;;;;;3.47;1.30;;;26.50;77.00;;;;;;4803720;29;20050;-60
2022/06/14 08:50:42;;;;;;;3.90;1.67;;;25.90;78.00;;;;;;4804627;29;20104;-60
2022/06/14 08:53:15;;;;;;;5.97;1.88;;;25.40;79.80;;;;;;4804428;29;20047;-61
2022/06/14 08:56:19;;;;;;;3.38;1.33;;;24.90;80.30;;;;;;4805095;29;20066;-58
2022/06/14 08:59:10;;;;;;;;;;;25.00;81.20;;;;;;4804598;29;20566;-59
2022/06/14 09:02:04;;;;;;;5.40;1.70;;;25.50;81.10;;;;;;4788599;29;19986;-59
2022/06/14 09:04:54;;;;;;;2.83;1.40;;;25.90;80.10;;;;;;4803847;29;20047;-60
2022/06/14 09:07:23;;;;;;;2.50;1.23;;;25.50;78.40;;;;;;4803786;29;20131;-60
2022/06/14 09:10:07;;;;;;;2.78;1.38;;;25.10;79.20;;;;;;4804543;29;20125;-59
2022/06/14 09:12:36;;;;;;;2.75;1.30;;;24.80;80.50;;;;;;4803649;29;20369;-59
2022/06/14 09:15:16;;;;;;;4.43;1.73;;;24.90;80.00;;;;;;4804306;29;20086;-60
2022/06/14 09:17:44;;;;;;;3.95;1.60;;;24.80;80.30;;;;;;4804590;29;20057;-60
2022/06/14 09:20:37;;;;;;;4.10;1.40;;;24.70;81.00;;;;;;4803746;29;20077;-60
2022/06/14 09:23:17;;;;;;;4.30;1.60;;;24.90;81.20;;;;;;4795946;29;20054;-60
2022/06/14 09:26:01;;;;;;;3.88;1.70;;;25.40;80.50;;;;;;4803479;29;20047;-60
2022/06/14 09:28:36;;;;;;;3.00;1.40;;;25.70;80.70;;;;;;4803080;29;20062;-60
2022/06/14 09:31:18;;;;;;;3.80;1.65;;;26.00;79.80;;;;;;4802790;29;20058;-60
2022/06/14 09:34:02;;;;;;;3.05;1.50;;;25.90;78.80;;;;;;4804357;29;20133;-62
2022/06/14 09:36:43;;;;;;;2.95;1.70;;;25.60;79.00;;;;;;4804715;29;20455;-61
2022/06/14 09:39:31;;;;;;;4.22;1.23;;;25.00;79.60;;;;;;4787313;29;20047;-58
2022/06/14 09:42:59;;;;;;;3.33;1.23;;;24.70;80.40;;;;;;4803255;29;20058;-59
2022/06/14 09:45:41;;;;;;;4.15;1.60;;;24.50;81.40;;;;;;4768359;30;20138;-59
2022/06/14 09:48:42;;;;;;;3.90;1.33;;;24.20;82.10;;;;;;4768485;30;20549;-58
2022/06/14 09:51:37;;;;;;;3.67;1.50;;;23.60;82.20;;;;;;4799334;29;20067;-58
2022/06/14 09:54:09;;;;;;;5.57;1.70;;;23.30;83.50;;;;;;4800625;29;20051;-60
2022/06/14 09:56:42;;;;;;;3.35;1.40;;;22.70;85.00;;;;;;4803205;29;20431;-58
2022/06/14 09:59:22;;;;;;;3.75;1.50;;;22.50;85.90;;;;;;4803252;29;20055;-59
2022/06/14 10:02:00;;;;;;;3.65;1.50;;;22.40;85.30;;;;;;4803870;29;20096;-58
2022/06/14 10:04:55;;;;;;;5.25;1.48;;;22.30;85.00;;;;;;4801237;29;20478;-59
2022/06/14 10:07:33;;;;;;;4.82;1.63;;;22.40;85.80;;;;;;4802051;29;20061;-58
2022/06/14 10:10:27;;;;;;;5.38;1.58;;;22.40;86.50;;;;;;4802860;29;20127;-59
2022/06/14 10:13:06;;;;;;;5.55;1.75;;;22.30;88.00;;;;;;4801664;29;20524;-58
2022/06/14 10:15:47;;;;;;;3.33;1.55;;;22.20;88.30;;;;;;4804554;29;20051;-59
2022/06/14 10:18:39;;;;;;;5.30;1.83;;;22.30;89.00;;;;;;4802792;29;20050;-58
2022/06/14 10:21:14;;;;;;;5.65;1.92;;;22.20;89.00;;;;;;4802926;29;20063;-58
2022/06/14 10:23:53;;;;;;;6.05;2.03;;;22.10;89.40;;;;;;4824354;29;20054;-59
2022/06/14 10:29:47;;;;;;;6.78;2.38;;;21.70;89.10;;;;;;4811565;29;20054;-58
2022/06/14 10:32:31;;;;;;;3.45;1.50;;;21.70;90.00;;;;;;4824889;29;20089;-58
2022/06/14 10:35:07;;;;;;;5.82;1.75;;;21.70;88.60;;;;;;4808830;29;20408;-58
2022/06/14 10:37:39;;;;;;;5.82;1.63;;;21.80;89.50;;;;;;4824474;29;20133;-59
2022/06/14 10:40:41;;;;;;;4.43;1.50;;;21.80;88.60;;;;;;4809029;29;20118;-59
2022/06/14 10:43:21;;;;;;;5.65;1.90;;;21.70;88.80;;;;;;4823350;29;20432;-58
2022/06/14 10:46:15;;;;;;;4.03;1.40;;;21.70;89.10;;;;;;4825039;29;20141;-59
2022/06/14 10:48:45;;;;;;;;;;;21.70;89.20;;;;;;4825023;29;20061;-59
2022/06/14 10:51:17;;;;;;;4.30;1.65;;;21.80;89.30;;;;;;4824656;29;19928;-61
2022/06/14 10:54:03;;;;;;;4.57;1.77;;;21.90;90.30;;;;;;4824824;29;20046;-59
2022/06/14 10:56:43;;;;;;;8.30;2.67;;;21.80;91.10;;;;;;4824391;29;20073;-59
2022/06/14 10:59:30;;;;;;;7.05;2.30;;;21.70;91.30;;;;;;4808726;29;20046;-59
2022/06/14 11:02:23;;;;;;;4.75;2.05;;;21.50;91.50;;;;;;4824783;29;20057;-58
2022/06/14 11:05:03;;;;;;;7.03;2.42;;;21.30;91.50;;;;;;4808688;29;20054;-60
2022/06/14 11:07:40;;;;;;;6.03;2.38;;;21.10;91.90;;;;;;4824390;29;20046;-58
2022/06/14 11:10:31;;;;;;;4.70;2.30;;;21.10;92.20;;;;;;4808300;29;20493;-58
2022/06/14 11:13:31;;;;;;;6.97;2.55;;;20.90;92.60;;;;;;4824709;29;20061;-58
2022/06/14 11:16:24;;;;;;;5.70;2.40;;;20.90;92.90;;;;;;4780549;29;20255;-58
2022/06/14 11:19:05;;;;;;;6.38;2.85;;;20.90;92.80;;;;;;4824628;29;20053;-58
2022/06/14 11:22:00;;;;;;;6.15;2.50;;;20.90;93.00;;;;;;4824059;29;20097;-59
2022/06/14 11:24:44;;;;;;;7.95;2.60;;;20.80;93.10;;;;;;4824087;29;20054;-59
2022/06/14 11:27:10;;;;;;;;;;;20.90;93.20;;;;;;4824846;29;20046;-58
2022/06/14 11:29:51;;;;;;;6.03;2.25;;;21.00;93.40;;;;;;4823642;29;19931;-58
2022/06/14 11:32:34;;;;;;;7.20;2.75;;;21.00;93.20;;;;;;4820601;29;20062;-64
2022/06/14 11:35:06;;;;;;;6.10;2.40;;;21.10;93.10;;;;;;4807744;29;20050;-58
2022/06/14 11:38:07;;;;;;;5.25;2.03;;;21.10;92.60;;;;;;4807944;29;20303;-59
2022/06/14 11:40:37;;;;;;;6.00;2.38;;;21.10;92.70;;;;;;4820364;29;20063;-60
2022/06/14 11:43:09;;;;;;;5.97;2.40;;;21.10;92.80;;;;;;4807899;29;20090;-59
2022/06/14 11:45:47;;;;;;;5.10;1.92;;;21.20;92.60;;;;;;4824029;29;20057;-59
2022/06/14 11:48:36;;;;;;;6.97;2.45;;;21.40;92.50;;;;;;4807775;29;20050;-59
2022/06/14 11:51:29;;;;;;;5.63;2.30;;;21.60;92.00;;;;;;4824262;29;20057;-60
2022/06/14 11:54:16;;;;;;;7.10;2.28;;;21.70;92.20;;;;;;4807745;29;20077;-60
2022/06/14 11:57:10;;;;;;;6.80;2.30;;;21.60;91.50;;;;;;4807069;29;20130;-61
2022/06/14 11:59:53;;;;;;;5.38;1.92;;;21.50;91.70;;;;;;4807323;29;20106;-59
2022/06/14 12:02:46;;;;;;;5.20;2.38;;;21.40;91.90;;;;;;4823691;29;20149;-60
2022/06/14 12:05:21;;;;;;;5.72;2.10;;;21.40;91.60;;;;;;4807839;29;20046;-63
2022/06/14 12:08:11;;;;;;;5.93;2.25;;;21.40;91.40;;;;;;4791896;29;20058;-60
2022/06/14 12:10:37;;;;;;;5.60;1.90;;;21.40;91.20;;;;;;4823238;29;20520;-60
2022/06/14 12:13:16;;;;;;;5.18;2.00;;;21.60;91.40;;;;;;4823643;29;20050;-61
2022/06/14 12:16:20;;;;;;;7.75;2.50;;;21.80;91.00;;;;;;4823756;29;20131;-61
2022/06/14 12:19:01;;;;;;;5.30;2.08;;;21.70;90.90;;;;;;4823223;29;20054;-59
2022/06/14 12:21:58;;;;;;;6.65;2.40;;;21.90;91.40;;;;;;4823154;29;20058;-60
2022/06/14 12:27:18;;;;;;;5.82;2.10;;;22.40;90.40;;;;;;4807453;29;20421;-60
2022/06/14 12:29:47;;;;;;;3.63;1.85;;;22.50;90.50;;;;;;4821774;29;20049;-60
2022/06/14 12:32:34;;;;;;;3.97;1.73;;;22.60;90.40;;;;;;4805374;29;20057;-60
2022/06/14 12:35:15;;;;;;;5.28;2.08;;;22.70;89.90;;;;;;4823092;29;20051;-60
2022/06/14 12:37:52;;;;;;;4.15;1.80;;;22.60;90.20;;;;;;4806649;29;20400;-60
2022/06/14 12:40:36;;;;;;;3.08;1.40;;;22.70;89.10;;;;;;4823046;29;20413;-60
2022/06/14 12:43:15;;;;;;;4.25;1.70;;;22.90;88.90;;;;;;4821828;29;20134;-60
2022/06/14 12:45:47;;;;;;;3.78;1.42;;;23.00;88.50;;;;;;4822232;29;20103;-60
2022/06/14 12:48:39;;;;;;;4.15;1.77;;;23.00;89.10;;;;;;4822734;29;20501;-59
2022/06/14 12:51:16;;;;;;;3.75;2.03;;;22.90;88.80;;;;;;4813056;29;20054;-59
2022/06/14 12:54:13;;;;;;;4.57;1.65;;;22.90;89.00;;;;;;4822873;29;20405;-60
2022/06/14 12:56:45;;;;;;;4.18;1.42;;;22.80;89.10;;;;;;4821264;29;20057;-59
2022/06/14 12:59:23;;;;;;;4.18;1.70;;;22.80;89.00;;;;;;4822599;29;20042;-60
2022/06/14 13:02:09;;;;;;;3.63;1.70;;;22.80;88.10;;;;;;4805303;29;20128;-60
2022/06/14 13:04:43;;;;;;;6.65;2.00;;;22.80;86.70;;;;;;4822413;29;20050;-59
2022/06/14 13:07:41;;;;;;;3.38;1.30;;;22.80;85.40;;;;;;4822789;29;20057;-60
2022/06/14 13:10:27;;;;;;;4.65;1.50;;;22.80;84.80;;;;;;4791861;29;20137;-59
2022/06/14 13:13:02;;;;;;;8.55;1.67;;;22.80;86.70;;;;;;4790707;29;20082;-59
2022/06/14 13:15:44;;;;;;;4.57;1.77;;;22.90;88.00;;;;;;4823213;29;20388;-60
2022/06/14 13:18:28;;;;;;;3.50;1.63;;;22.90;88.10;;;;;;4806011;29;20054;-60
2022/06/14 13:21:13;;;;;;;3.72;1.45;;;22.50;87.90;;;;;;4821600;29;20050;-60
2022/06/14 13:23:50;;;;;;;5.80;2.00;;;22.60;88.60;;;;;;4790767;29;20054;-59
2022/06/14 13:26:25;;;;;;;5.22;1.83;;;22.50;89.80;;;;;;4805944;29;20042;-60
2022/06/14 13:29:14;;;;;;;5.45;2.30;;;22.50;90.80;;;;;;4822277;29;20132;-60
2022/06/14 13:31:50;;;;;;;4.85;1.95;;;22.20;91.50;;;;;;4806119;29;20590;-57
2022/06/14 13:34:34;;;;;;;4.60;2.17;;;22.00;92.10;;;;;;4806105;29;20497;-59
2022/06/14 13:37:41;;;;;;;6.00;1.90;;;22.00;92.30;;;;;;4822664;29;20164;-59
2022/06/14 13:40:23;;;;;;;6.13;2.05;;;21.90;92.10;;;;;;4806411;29;20409;-58
2022/06/14 13:43:05;;;;;;;4.75;2.00;;;21.50;92.30;;;;;;4822200;29;20050;-59
2022/06/14 13:45:50;;;;;;;4.63;2.30;;;21.40;92.40;;;;;;4822075;29;20046;-59
2022/06/14 13:48:37;;;;;;;4.22;1.83;;;21.40;92.40;;;;;;4821543;29;20129;-59
2022/06/14 13:51:22;;;;;;;4.80;1.73;;;21.30;92.40;;;;;;4822577;29;20500;-59
2022/06/14 13:54:03;;;;;;;3.28;1.73;;;21.20;92.10;;;;;;4821682;29;20442;-58
2022/06/14 13:56:42;;;;;;;4.45;1.55;;;21.20;92.30;;;;;;4805720;29;20053;-59
2022/06/14 13:59:19;;;;;;;4.35;1.80;;;21.20;91.80;;;;;;4794113;29;20408;-58
2022/06/14 14:02:13;;;;;;;5.13;1.83;;;21.30;92.20;;;;;;4825421;29;20405;-58
2022/06/14 14:04:51;;;;;;;5.05;1.98;;;21.40;91.70;;;;;;4809027;29;20058;-59